createdAt,value
2024-02-28T00:00:34.641Z,15.60
2024-02-28T00:05:35.763Z,15.80
2024-02-28T00:10:33.004Z,16.00
2024-02-28T00:15:33.299Z,15.30
2024-02-28T00:20:31.596Z,17.30
2024-02-28T00:25:30.844Z,16.60
2024-02-28T00:30:30.198Z,16.90
2024-02-28T00:35:28.283Z,16.40
2024-02-28T00:40:29.554Z,15.60
2024-02-28T00:45:28.001Z,16.00
2024-02-28T00:50:28.082Z,17.00
2024-02-28T00:55:26.362Z,15.70
2024-02-28T01:00:25.670Z,15.70
2024-02-28T01:05:24.927Z,15.60
2024-02-28T01:10:24.206Z,15.10
2024-02-28T01:15:25.493Z,15.90
2024-02-28T01:20:22.758Z,15.80
2024-02-28T01:25:23.012Z,15.50
2024-02-28T01:30:22.294Z,15.00
2024-02-28T01:35:21.607Z,15.80
2024-02-28T01:40:19.726Z,15.50
2024-02-28T01:45:19.070Z,14.90
2024-02-28T01:50:19.333Z,13.70
2024-02-28T01:55:17.390Z,15.60
2024-02-28T02:00:16.766Z,15.20
2024-02-28T02:05:16.940Z,14.90
2024-02-28T02:10:15.251Z,15.20
2024-02-28T02:15:14.621Z,16.10
2024-02-28T02:20:13.784Z,15.70
2024-02-28T02:25:12.937Z,15.70
2024-02-28T02:30:14.303Z,16.50
2024-02-28T02:35:12.509Z,15.00
2024-02-28T02:40:10.768Z,14.90
2024-02-28T02:45:10.071Z,14.10
2024-02-28T02:50:11.351Z,14.60
2024-02-28T02:55:08.578Z,15.00
2024-02-28T03:00:08.858Z,15.10
2024-02-28T03:05:09.132Z,13.40
2024-02-28T03:10:06.401Z,15.30
2024-02-28T03:15:06.517Z,15.80
2024-02-28T03:20:04.765Z,15.10
2024-02-28T03:25:06.108Z,14.20
2024-02-28T03:30:04.200Z,15.80
2024-02-28T03:35:01.490Z,14.10
2024-02-28T03:40:02.806Z,14.50
2024-02-28T03:45:03.088Z,13.20
2024-02-28T03:50:01.332Z,14.50
2024-02-28T03:54:59.699Z,14.20
2024-02-28T03:59:58.891Z,14.60
2024-02-28T04:04:58.348Z,13.80
2024-02-28T04:10:00.595Z,14.60
2024-02-28T04:14:56.621Z,14.90
2024-02-28T04:19:55.871Z,13.80
2024-02-28T04:24:56.187Z,13.60
2024-02-28T04:29:55.423Z,14.30
2024-02-28T04:34:54.677Z,14.00
2024-02-28T04:39:52.963Z,13.90
2024-02-28T04:44:52.182Z,14.50
2024-02-28T04:49:51.418Z,13.00
2024-02-28T04:54:50.736Z,13.90
2024-02-28T04:59:49.976Z,13.50
2024-02-28T05:04:50.192Z,14.60
2024-02-28T05:09:48.486Z,14.50
2024-02-28T05:14:47.756Z,14.90
2024-02-28T05:19:46.986Z,13.80
2024-02-28T05:24:46.247Z,13.30
2024-02-28T05:29:45.532Z,14.40
2024-02-28T05:34:44.788Z,14.70
2024-02-28T05:39:44.086Z,14.00
2024-02-28T05:44:45.363Z,15.90
2024-02-28T05:49:44.625Z,14.70
2024-02-28T05:54:41.914Z,14.90
2024-02-28T05:59:42.189Z,13.90
2024-02-28T06:04:42.431Z,15.60
2024-02-28T06:09:41.725Z,14.30
2024-02-28T06:14:39.972Z,13.80
2024-02-28T06:19:38.235Z,14.50
2024-02-28T06:24:37.634Z,14.50
2024-02-28T06:29:36.722Z,12.90
2024-02-28T06:34:38.011Z,13.80
2024-02-28T06:39:35.276Z,13.30
2024-02-28T06:44:34.749Z,15.00
2024-02-28T06:49:33.952Z,13.00
2024-02-28T06:54:33.073Z,15.10
2024-02-28T06:59:33.347Z,14.40
2024-02-28T07:04:31.565Z,14.80
2024-02-28T07:09:30.886Z,12.90
2024-02-28T07:14:30.937Z,14.40
2024-02-28T07:19:29.176Z,16.30
2024-02-28T07:24:29.450Z,14.20
2024-02-28T07:29:27.748Z,16.20
2024-02-28T07:34:28.005Z,15.80
2024-02-28T07:39:26.305Z,17.10
2024-02-28T07:44:26.539Z,16.70
2024-02-28T07:49:27.437Z,17.40
2024-02-28T07:54:25.087Z,18.00
2024-02-28T07:59:24.343Z,17.50
2024-02-28T08:04:24.596Z,19.10
2024-02-28T08:09:21.875Z,17.60
2024-02-28T08:14:22.109Z,17.90
2024-02-28T08:19:21.398Z,19.00
2024-02-28T08:24:20.813Z,17.40
2024-02-28T08:29:18.875Z,17.60
2024-02-28T08:34:19.195Z,18.50
2024-02-28T08:39:18.445Z,21.40
2024-02-28T08:44:17.721Z,20.60
2024-02-28T08:49:16.002Z,20.80
2024-02-28T08:54:15.281Z,20.50
2024-02-28T08:59:14.514Z,18.00
2024-02-28T09:04:13.774Z,19.30
2024-02-28T09:09:14.086Z,22.10
2024-02-28T09:14:13.381Z,20.50
2024-02-28T09:19:11.631Z,19.70
2024-02-28T09:24:09.889Z,19.40
2024-02-28T09:29:10.174Z,11.00
2024-02-28T09:34:09.450Z,21.10
2024-02-28T09:39:08.701Z,20.60
2024-02-28T09:44:08.045Z,21.50
2024-02-28T09:49:07.496Z,11.70
2024-02-28T09:54:07.540Z,20.80
2024-02-28T09:59:05.794Z,18.00
2024-02-28T10:04:06.193Z,8.20
2024-02-28T10:09:04.282Z,16.50
2024-02-28T10:14:03.701Z,7.20
2024-02-28T10:19:02.935Z,9.80
2024-02-28T10:24:05.330Z,17.30
2024-02-28T10:29:01.304Z,20.70
2024-02-28T10:34:02.714Z,20.70
2024-02-28T10:38:59.726Z,21.20
2024-02-28T10:43:59.963Z,13.70
2024-02-28T10:48:59.195Z,14.60
2024-02-28T10:53:58.390Z,20.80
2024-02-28T10:58:58.601Z,14.90
2024-02-28T11:03:56.862Z,17.60
2024-02-28T11:08:56.088Z,19.40
2024-02-28T11:13:54.354Z,8.60
2024-02-28T11:18:54.581Z,21.30
2024-02-28T11:23:53.836Z,17.80
2024-02-28T11:28:52.060Z,21.00
2024-02-28T11:33:52.411Z,17.40
2024-02-28T11:38:51.450Z,23.40
2024-02-28T11:43:52.190Z,22.50
2024-02-28T11:48:48.024Z,20.90
2024-02-28T11:53:48.261Z,24.60
2024-02-28T11:58:48.447Z,24.40
2024-02-28T12:03:47.688Z,13.00
2024-02-28T12:08:45.947Z,22.90
2024-02-28T12:13:47.232Z,21.50
2024-02-28T12:18:45.451Z,12.80
2024-02-28T12:23:43.667Z,18.60
2024-02-28T12:28:44.911Z,21.80
2024-02-28T12:33:44.149Z,23.60
2024-02-28T12:38:43.411Z,13.60
2024-02-28T12:43:41.615Z,18.10
2024-02-28T12:48:39.885Z,18.40
2024-02-28T12:53:40.112Z,18.70
2024-02-28T12:58:40.307Z,19.20
2024-02-28T13:03:39.639Z,18.10
2024-02-28T13:08:36.825Z,15.40
2024-02-28T13:13:35.926Z,21.00
2024-02-28T13:18:36.287Z,20.60
2024-02-28T13:23:34.590Z,20.20
2024-02-28T13:28:33.916Z,22.50
2024-02-28T13:33:33.332Z,20.70
2024-02-28T13:38:32.528Z,22.30
2024-02-28T13:43:34.633Z,23.60
2024-02-28T13:48:30.963Z,24.20
2024-02-28T13:53:31.255Z,23.70
2024-02-28T13:58:36.600Z,23.90
2024-02-28T14:03:28.784Z,22.50
2024-02-28T14:08:32.184Z,23.00
2024-02-28T14:13:27.310Z,20.30
2024-02-28T14:18:27.688Z,23.40
2024-02-28T14:23:27.851Z,26.70
2024-02-28T14:28:25.932Z,24.60
2024-02-28T14:33:25.332Z,25.10
2024-02-28T14:38:23.478Z,33.20
2024-02-28T14:43:22.774Z,21.20
2024-02-28T14:48:22.131Z,25.10
2024-02-28T14:53:22.249Z,24.80
2024-02-28T14:58:20.600Z,20.90
2024-02-28T15:03:19.917Z,24.60
2024-02-28T15:08:20.048Z,17.60
2024-02-28T15:13:20.282Z,19.80
2024-02-28T15:18:19.476Z,24.00
2024-02-28T15:23:19.689Z,22.10
2024-02-28T15:28:16.834Z,21.10
2024-02-28T15:33:15.068Z,24.80
2024-02-28T15:38:15.194Z,24.00
2024-02-28T15:43:13.338Z,24.20
2024-02-28T15:48:13.690Z,26.80
2024-02-28T15:53:12.748Z,28.30
2024-02-28T15:58:12.273Z,26.00
2024-02-28T16:03:12.586Z,26.40
2024-02-28T16:08:10.997Z,26.70
2024-02-28T16:13:09.197Z,25.70
2024-02-28T16:18:09.339Z,25.80
2024-02-28T16:23:07.445Z,25.40
2024-02-28T16:28:06.858Z,22.30
2024-02-28T16:33:06.017Z,25.60
2024-02-28T16:38:06.164Z,24.90
2024-02-28T16:43:04.572Z,24.80
2024-02-28T16:48:04.769Z,27.50
2024-02-28T16:53:03.112Z,26.20
2024-02-28T16:58:02.447Z,25.00
2024-02-28T17:03:01.557Z,24.40
2024-02-28T17:08:01.735Z,24.30
2024-02-28T17:12:58.912Z,24.60
2024-02-28T17:17:58.062Z,24.50
2024-02-28T17:22:58.366Z,23.60
2024-02-28T17:27:59.726Z,24.70
2024-02-28T17:32:58.957Z,23.80
2024-02-28T17:37:56.099Z,25.30
2024-02-28T17:42:55.243Z,24.30
2024-02-28T17:47:55.438Z,26.40
2024-02-28T17:52:54.544Z,23.60
2024-02-28T17:57:53.740Z,24.10
2024-02-28T18:02:53.981Z,25.10
2024-02-28T18:07:53.072Z,25.80
2024-02-28T18:12:50.400Z,23.30
2024-02-28T18:17:49.615Z,24.80
2024-02-28T18:22:49.757Z,25.10
2024-02-28T18:27:47.953Z,26.20
2024-02-28T18:32:47.167Z,27.40
2024-02-28T18:37:47.264Z,10.20
2024-02-28T18:42:46.697Z,21.20
2024-02-28T18:47:44.828Z,23.90
2024-02-28T18:52:44.125Z,22.20
2024-02-28T18:57:43.434Z,22.90
2024-02-28T19:02:42.834Z,21.20
2024-02-28T19:07:42.965Z,22.40
2024-02-28T19:12:41.140Z,21.30
2024-02-28T19:17:41.354Z,21.60
2024-02-28T19:22:39.452Z,22.10
2024-02-28T19:27:38.804Z,21.40
2024-02-28T19:32:39.163Z,21.10
2024-02-28T19:37:37.286Z,22.00
2024-02-28T19:42:38.635Z,23.10
2024-02-28T19:47:36.962Z,25.10
2024-02-28T19:52:35.239Z,23.90
2024-02-28T19:57:35.635Z,24.00
2024-02-28T20:02:33.761Z,22.00
2024-02-28T20:07:32.940Z,22.90
2024-02-28T20:12:32.077Z,22.70
2024-02-28T20:17:31.237Z,25.10
2024-02-28T20:22:31.378Z,22.50
2024-02-28T20:27:30.742Z,24.80
2024-02-28T20:32:28.851Z,24.40
2024-02-28T20:37:30.146Z,11.30
2024-02-28T20:42:27.473Z,23.90
2024-02-28T20:47:27.856Z,21.10
2024-02-28T20:52:27.008Z,24.30
2024-02-28T20:57:24.166Z,22.40
2024-02-28T21:02:24.538Z,24.40
2024-02-28T21:07:36.661Z,22.40
2024-02-28T21:12:22.850Z,24.50
2024-02-28T21:17:22.981Z,24.10
2024-02-28T21:22:22.354Z,24.90
2024-02-28T21:27:20.485Z,26.20
2024-02-28T21:32:21.653Z,31.40
2024-02-28T21:37:18.982Z,32.60
2024-02-28T21:42:19.276Z,32.00
2024-02-28T21:47:16.612Z,31.00
2024-02-28T21:52:15.773Z,33.40
2024-02-28T21:57:15.058Z,35.30
2024-02-28T22:02:15.218Z,31.40
2024-02-28T22:07:15.375Z,34.40
2024-02-28T22:12:15.491Z,32.50
2024-02-28T22:17:13.624Z,31.70
2024-02-28T22:22:11.990Z,33.10
2024-02-28T22:27:12.078Z,31.00
2024-02-28T22:32:10.449Z,34.90
2024-02-28T22:37:10.653Z,34.40
2024-02-28T22:42:08.792Z,31.90
2024-02-28T22:47:08.111Z,33.70
2024-02-28T22:52:08.499Z,31.80
2024-02-28T22:57:06.662Z,31.40
2024-02-28T23:02:07.942Z,28.20
2024-02-28T23:07:06.125Z,30.90
2024-02-28T23:12:04.281Z,31.50
2024-02-28T23:17:03.415Z,32.50
2024-02-28T23:22:02.597Z,35.00
2024-02-28T23:27:03.771Z,22.80
2024-02-28T23:32:02.865Z,26.90
2024-02-28T23:37:01.200Z,27.20
2024-02-28T23:42:01.295Z,28.20
2024-02-28T23:46:58.599Z,26.50
2024-02-28T23:51:57.908Z,25.70
2024-02-28T23:56:59.276Z,26.80
